Terminal Aerodrome Forecast
Issued by NWS

Home | Current Version | Previous Version | Text Only | Print | Product List | Glossary On
Versions: 1 2 3 4 5 6 7 8 9 10 11 12 13 14 15 16
450
FTUS43 KGRR 281136
TAFLAN
TAF
KLAN 281136Z 2812/2912 22006KT P6SM OVC035
     FM281600 20006KT P6SM BKN050 BKN150
     FM282100 20009KT P6SM VCSH BKN090
     FM290000 19006KT 5SM -SHRA OVC040
     FM290400 13004KT P6SM -SHRA OVC035
     FM290700 03004KT P6SM OVC015=

USA.gov is the U.S. government's official web portal to all federal, state and local government web resources and services.